createdAt,value
2023-08-26T00:02:35.850Z,11.93
2023-08-26T00:05:42.236Z,12.23
2023-08-26T00:08:48.045Z,11.83
2023-08-26T00:11:53.793Z,12.53
2023-08-26T00:14:59.641Z,12.05
2023-08-26T00:18:05.216Z,10.40
2023-08-26T00:21:12.783Z,10.43
2023-08-26T00:24:19.456Z,12.03
2023-08-26T00:27:26.439Z,10.10
2023-08-26T00:30:32.788Z,9.93
2023-08-26T00:33:38.975Z,10.45
2023-08-26T00:36:46.123Z,11.35
2023-08-26T00:39:50.676Z,11.35
2023-08-26T00:42:57.160Z,13.78
2023-08-26T00:46:04.313Z,13.90
2023-08-26T00:49:10.414Z,12.47
2023-08-26T00:52:17.798Z,11.28
2023-08-26T00:55:24.692Z,10.82
2023-08-26T00:58:30.832Z,11.00
2023-08-26T01:01:36.192Z,10.45
2023-08-26T01:04:42.034Z,10.32
2023-08-26T01:07:47.804Z,9.48
2023-08-26T01:11:39.639Z,9.08
2023-08-26T01:14:52.699Z,8.30
2023-08-26T01:17:58.297Z,8.75
2023-08-26T01:21:04.990Z,8.35
2023-08-26T01:24:12.174Z,8.73
2023-08-26T01:27:19.261Z,8.85
2023-08-26T01:30:26.977Z,8.90
2023-08-26T01:33:37.673Z,8.55
2023-08-26T01:36:42.659Z,8.30
2023-08-26T01:39:48.836Z,8.58
2023-08-26T01:42:57.000Z,9.63
2023-08-26T01:46:02.619Z,8.35
2023-08-26T01:49:07.824Z,8.70
2023-08-26T01:52:12.454Z,8.25
2023-08-26T01:55:17.815Z,9.00
2023-08-26T01:58:24.887Z,8.78
2023-08-26T02:01:30.151Z,8.48
2023-08-26T02:04:36.736Z,9.05
2023-08-26T02:07:42.556Z,8.10
2023-08-26T02:10:49.174Z,9.25
2023-08-26T02:13:56.630Z,8.45
2023-08-26T02:17:03.305Z,8.20
2023-08-26T02:20:10.684Z,8.20
2023-08-26T02:23:17.582Z,9.60
2023-08-26T02:26:23.132Z,8.45
2023-08-26T02:29:29.093Z,9.00
2023-08-26T02:32:34.135Z,8.90
2023-08-26T02:35:40.279Z,8.48
2023-08-26T02:38:46.558Z,8.73
2023-08-26T02:41:52.615Z,9.33
2023-08-26T02:44:59.907Z,8.95
2023-08-26T02:48:05.757Z,8.83
2023-08-26T02:51:15.612Z,9.13
2023-08-26T02:54:20.671Z,9.25
2023-08-26T02:57:27.858Z,9.03
2023-08-26T03:00:34.920Z,8.65
2023-08-26T03:03:41.078Z,8.20
2023-08-26T03:06:47.969Z,9.70
2023-08-26T03:09:54.442Z,9.55
2023-08-26T03:13:00.613Z,9.78
2023-08-26T03:16:07.436Z,9.25
2023-08-26T03:19:14.092Z,10.08
2023-08-26T03:22:19.907Z,9.75
2023-08-26T03:25:19.512Z,9.50
2023-08-26T03:28:26.596Z,10.10
2023-08-26T03:31:34.060Z,9.40
2023-08-26T03:34:40.800Z,9.68
2023-08-26T03:37:48.011Z,10.82
2023-08-26T03:40:56.475Z,11.55
2023-08-26T03:44:02.263Z,12.55
2023-08-26T03:47:07.454Z,13.25
2023-08-26T03:50:14.590Z,11.88
2023-08-26T03:53:20.499Z,12.45
2023-08-26T03:56:26.403Z,12.90
2023-08-26T03:59:32.401Z,12.18
2023-08-26T04:02:38.810Z,12.23
2023-08-26T04:05:44.530Z,10.88
2023-08-26T04:08:52.165Z,11.57
2023-08-26T04:11:58.219Z,13.00
2023-08-26T04:15:03.913Z,20.97
2023-08-26T04:18:11.315Z,26.87
2023-08-26T04:21:17.462Z,27.27
2023-08-26T04:24:23.327Z,18.85
2023-08-26T04:27:27.911Z,19.70
2023-08-26T04:30:33.593Z,20.48
2023-08-26T04:33:40.872Z,18.32
2023-08-26T04:36:46.683Z,20.12
2023-08-26T04:39:52.826Z,18.27
2023-08-26T04:42:59.849Z,15.60
2023-08-26T04:46:07.138Z,11.88
2023-08-26T04:49:14.221Z,9.53
2023-08-26T04:52:19.762Z,8.98
2023-08-26T04:55:26.128Z,9.05
2023-08-26T04:58:31.600Z,19.07
2023-08-26T05:01:39.176Z,12.25
2023-08-26T05:04:45.837Z,9.35
2023-08-26T05:07:51.930Z,8.90
2023-08-26T05:10:58.322Z,8.75
2023-08-26T05:14:04.343Z,9.03
2023-08-26T05:17:09.807Z,8.63
2023-08-26T05:20:16.788Z,9.53
2023-08-26T05:23:21.640Z,8.63
2023-08-26T05:26:26.676Z,8.85
2023-08-26T05:29:33.444Z,8.90
2023-08-26T05:32:41.303Z,8.78
2023-08-26T05:35:47.564Z,8.38
2023-08-26T05:38:53.548Z,7.75
2023-08-26T05:41:58.726Z,8.83
2023-08-26T05:45:05.806Z,8.80
2023-08-26T05:48:11.479Z,8.20
2023-08-26T05:51:10.750Z,8.43
2023-08-26T05:54:18.634Z,8.75
2023-08-26T05:57:24.179Z,8.85
2023-08-26T06:00:35.450Z,8.68
2023-08-26T06:03:40.852Z,9.13
2023-08-26T06:06:47.451Z,9.33
2023-08-26T06:09:52.537Z,9.10
2023-08-26T06:12:58.746Z,9.05
2023-08-26T06:16:11.739Z,8.33
2023-08-26T06:19:18.513Z,8.30
2023-08-26T06:22:23.646Z,8.48
2023-08-26T06:25:29.789Z,8.58
2023-08-26T06:28:36.160Z,8.38
2023-08-26T06:31:41.853Z,9.05
2023-08-26T06:34:47.974Z,8.35
2023-08-26T06:37:54.069Z,8.63
2023-08-26T06:40:59.392Z,8.23
2023-08-26T06:44:05.965Z,8.63
2023-08-26T06:47:15.002Z,8.13
2023-08-26T06:50:23.958Z,7.78
2023-08-26T06:53:31.756Z,7.75
2023-08-26T06:56:38.548Z,7.62
2023-08-26T06:59:46.324Z,7.80
2023-08-26T07:02:51.257Z,8.10
2023-08-26T07:06:03.180Z,6.87
2023-08-26T07:09:10.858Z,7.22
2023-08-26T07:12:15.627Z,6.70
2023-08-26T07:15:21.986Z,6.08
2023-08-26T07:18:27.518Z,6.28
2023-08-26T07:21:34.364Z,7.17
2023-08-26T07:24:39.829Z,6.87
2023-08-26T07:27:45.684Z,6.92
2023-08-26T07:30:52.756Z,7.15
2023-08-26T07:34:00.071Z,6.65
2023-08-26T07:37:08.268Z,5.33
2023-08-26T07:40:17.810Z,5.08
2023-08-26T07:43:22.745Z,6.28
2023-08-26T07:49:37.607Z,5.30
2023-08-26T07:52:42.647Z,5.25
2023-08-26T07:55:50.483Z,5.30
2023-08-26T07:58:57.237Z,4.75
2023-08-26T08:02:04.164Z,4.42
2023-08-26T08:05:11.244Z,4.62
2023-08-26T08:08:16.383Z,4.50
2023-08-26T08:11:21.343Z,4.75
2023-08-26T08:14:27.083Z,5.00
2023-08-26T08:17:33.443Z,4.00
2023-08-26T08:20:39.654Z,4.95
2023-08-26T08:23:46.147Z,4.65
2023-08-26T08:26:51.684Z,4.25
2023-08-26T08:29:59.029Z,4.25
2023-08-26T08:33:04.823Z,4.17
2023-08-26T08:36:11.808Z,4.58
2023-08-26T08:39:17.940Z,4.42
2023-08-26T08:42:25.915Z,3.33
2023-08-26T08:45:31.547Z,3.72
2023-08-26T08:48:39.308Z,9.15
2023-08-26T08:51:44.665Z,4.33
2023-08-26T08:54:50.043Z,4.00
2023-08-26T08:57:58.767Z,4.40
2023-08-26T09:01:06.885Z,4.20
2023-08-26T09:04:11.956Z,3.87
2023-08-26T09:07:22.504Z,4.45
2023-08-26T09:10:26.724Z,4.20
2023-08-26T09:13:31.355Z,3.27
2023-08-26T09:16:45.252Z,3.90
2023-08-26T09:19:52.971Z,4.33
2023-08-26T09:22:59.036Z,3.67
2023-08-26T09:26:10.868Z,3.75
2023-08-26T09:29:17.343Z,3.90
2023-08-26T09:32:24.894Z,3.45
2023-08-26T09:38:42.472Z,3.62
2023-08-26T09:41:48.213Z,3.40
2023-08-26T09:44:56.421Z,3.87
2023-08-26T09:48:05.705Z,3.85
2023-08-26T09:51:12.432Z,3.87
2023-08-26T09:54:18.648Z,3.10
2023-08-26T09:57:25.890Z,3.30
2023-08-26T10:00:32.871Z,5.12
2023-08-26T10:03:39.983Z,4.92
2023-08-26T10:06:46.443Z,5.72
2023-08-26T10:10:07.590Z,3.05
2023-08-26T10:13:18.882Z,3.15
2023-08-26T10:16:33.920Z,3.00
2023-08-26T10:19:34.833Z,4.03
2023-08-26T10:22:41.436Z,2.87
2023-08-26T10:25:47.632Z,3.17
2023-08-26T10:28:55.350Z,4.00
2023-08-26T10:32:00.631Z,3.33
2023-08-26T10:35:14.572Z,7.28
2023-08-26T10:38:28.206Z,3.22
2023-08-26T10:41:33.910Z,3.20
2023-08-26T10:44:53.515Z,3.42
2023-08-26T10:48:00.477Z,4.80
2023-08-26T10:51:16.568Z,4.05
2023-08-26T10:54:24.804Z,3.47
2023-08-26T10:57:30.678Z,3.80
2023-08-26T11:00:38.173Z,4.70
2023-08-26T11:03:45.383Z,3.72
2023-08-26T11:06:53.972Z,3.05
2023-08-26T11:10:01.458Z,3.20
2023-08-26T11:13:06.789Z,3.50
2023-08-26T11:16:15.483Z,3.50
2023-08-26T11:19:22.844Z,3.10
2023-08-26T11:22:28.899Z,3.17
2023-08-26T11:25:34.449Z,3.58
2023-08-26T11:28:41.416Z,3.72
2023-08-26T11:31:49.104Z,3.65
2023-08-26T11:34:55.926Z,3.10
2023-08-26T11:38:05.172Z,3.20
2023-08-26T11:41:12.817Z,3.45
2023-08-26T11:44:23.252Z,3.05
2023-08-26T11:47:30.324Z,3.45
2023-08-26T11:50:35.318Z,3.50
2023-08-26T11:53:41.108Z,3.50
2023-08-26T11:56:46.211Z,3.83
2023-08-26T11:59:54.686Z,3.67
2023-08-26T12:03:07.035Z,3.98
2023-08-26T12:06:13.892Z,3.58
2023-08-26T12:09:20.168Z,3.52
2023-08-26T12:12:26.616Z,3.50
2023-08-26T12:15:33.559Z,3.80
2023-08-26T12:18:39.029Z,3.47
2023-08-26T12:21:47.574Z,5.37
2023-08-26T12:24:54.838Z,3.90
2023-08-26T12:28:01.789Z,3.35
2023-08-26T12:31:07.039Z,3.22
2023-08-26T12:34:13.214Z,3.10
2023-08-26T12:37:21.713Z,3.92
2023-08-26T12:40:30.346Z,3.60
2023-08-26T12:43:37.749Z,5.50
2023-08-26T12:46:44.111Z,4.35
2023-08-26T12:49:50.818Z,3.72
2023-08-26T12:52:56.307Z,3.80
2023-08-26T12:56:02.343Z,3.47
2023-08-26T12:59:07.631Z,3.47
2023-08-26T13:02:14.348Z,3.17
2023-08-26T13:05:24.091Z,3.02
2023-08-26T13:08:29.682Z,3.55
2023-08-26T13:11:34.829Z,3.50
2023-08-26T13:14:40.811Z,3.42
2023-08-26T13:17:46.533Z,3.55
2023-08-26T13:20:56.517Z,3.58
2023-08-26T13:24:01.646Z,3.42
2023-08-26T13:27:08.368Z,3.17
2023-08-26T13:30:14.512Z,3.47
2023-08-26T13:33:23.020Z,3.52
2023-08-26T13:36:36.232Z,3.35
2023-08-26T13:39:36.836Z,3.85
2023-08-26T13:42:42.403Z,3.90
2023-08-26T13:45:49.196Z,4.53
2023-08-26T13:48:56.298Z,4.05
2023-08-26T13:52:02.278Z,3.95
2023-08-26T13:55:08.726Z,3.77
2023-08-26T13:58:14.329Z,3.27
2023-08-26T14:01:19.721Z,3.67
2023-08-26T14:04:27.028Z,3.72
2023-08-26T14:07:35.043Z,3.90
2023-08-26T14:10:41.519Z,4.28
2023-08-26T14:13:47.663Z,4.95
2023-08-26T14:16:53.210Z,4.62
2023-08-26T14:19:59.764Z,3.83
2023-08-26T14:23:07.164Z,3.42
2023-08-26T14:26:13.322Z,3.25
2023-08-26T14:29:19.625Z,3.70
2023-08-26T14:32:26.376Z,3.50
2023-08-26T14:35:31.920Z,3.72
2023-08-26T14:38:37.202Z,2.95
2023-08-26T14:41:44.336Z,3.77
2023-08-26T14:44:49.754Z,3.20
2023-08-26T14:47:56.963Z,3.20
2023-08-26T14:51:09.445Z,3.70
2023-08-26T14:54:13.934Z,3.58
2023-08-26T14:57:20.716Z,3.30
2023-08-26T15:00:26.630Z,3.22
2023-08-26T15:03:32.466Z,6.17
2023-08-26T15:06:38.062Z,4.87
2023-08-26T15:09:44.859Z,4.97
2023-08-26T15:12:51.543Z,4.25
2023-08-26T15:16:02.159Z,3.67
2023-08-26T15:19:08.804Z,3.62
2023-08-26T15:22:16.762Z,3.60
2023-08-26T15:25:22.839Z,3.90
2023-08-26T15:28:28.501Z,4.10
2023-08-26T15:31:33.578Z,4.05
2023-08-26T15:34:38.681Z,4.00
2023-08-26T15:37:45.556Z,3.95
2023-08-26T15:40:52.753Z,3.87
2023-08-26T15:43:58.796Z,14.65
2023-08-26T15:47:05.287Z,8.25
2023-08-26T15:50:12.301Z,4.40
2023-08-26T15:53:19.019Z,4.20
2023-08-26T15:56:24.205Z,3.92
2023-08-26T15:59:29.540Z,3.85
2023-08-26T16:02:35.265Z,3.85
2023-08-26T16:05:42.500Z,3.55
2023-08-26T16:08:48.726Z,3.98
2023-08-26T16:11:53.335Z,4.17
2023-08-26T16:15:00.379Z,4.00
2023-08-26T16:18:06.707Z,3.80
2023-08-26T16:21:12.789Z,4.42
2023-08-26T16:24:20.785Z,4.80
2023-08-26T16:27:27.650Z,4.15
2023-08-26T16:30:32.801Z,7.37
2023-08-26T16:33:39.065Z,9.03
2023-08-26T16:36:44.889Z,7.92
2023-08-26T16:39:51.482Z,7.72
2023-08-26T16:42:57.898Z,7.90
2023-08-26T16:46:06.594Z,6.08
2023-08-26T16:49:12.855Z,4.97
2023-08-26T16:52:20.927Z,4.70
2023-08-26T16:55:27.482Z,5.10
2023-08-26T16:58:33.329Z,4.40
2023-08-26T17:01:38.717Z,4.62
2023-08-26T17:04:45.028Z,4.50
2023-08-26T17:07:50.405Z,4.17
2023-08-26T17:10:56.115Z,4.70
2023-08-26T17:14:01.472Z,5.42
2023-08-26T17:17:08.886Z,5.53
2023-08-26T17:20:15.288Z,5.60
2023-08-26T17:23:20.684Z,5.45
2023-08-26T17:26:26.524Z,4.95
2023-08-26T17:29:32.341Z,4.92
2023-08-26T17:32:39.396Z,5.35
2023-08-26T17:35:46.274Z,5.10
2023-08-26T17:38:53.666Z,5.25
2023-08-26T17:42:00.617Z,6.03
2023-08-26T17:45:05.767Z,5.53
2023-08-26T17:48:11.714Z,5.53
2023-08-26T17:51:18.268Z,5.83
2023-08-26T17:54:23.257Z,8.35
2023-08-26T17:57:32.093Z,26.40
2023-08-26T18:00:37.804Z,21.07
2023-08-26T18:03:43.568Z,29.82
2023-08-26T18:06:50.090Z,31.30
2023-08-26T18:09:56.304Z,36.28
2023-08-26T18:13:04.893Z,24.77
2023-08-26T18:16:10.471Z,20.90
2023-08-26T18:19:16.620Z,17.15
2023-08-26T18:22:22.676Z,12.73
2023-08-26T18:25:30.969Z,16.05
2023-08-26T18:28:37.362Z,13.22
2023-08-26T18:31:42.983Z,22.32
2023-08-26T18:34:52.446Z,21.45
2023-08-26T18:38:00.184Z,22.27
2023-08-26T18:41:13.480Z,13.32
2023-08-26T18:44:20.837Z,14.10
2023-08-26T18:47:27.322Z,15.68
2023-08-26T18:50:33.623Z,22.13
2023-08-26T18:53:39.457Z,18.62
2023-08-26T18:56:45.527Z,9.83
2023-08-26T18:59:52.108Z,9.30
2023-08-26T19:02:59.013Z,8.58
2023-08-26T19:06:05.874Z,7.22
2023-08-26T19:09:11.659Z,7.67
2023-08-26T19:12:18.908Z,7.45
2023-08-26T19:15:25.295Z,6.85
2023-08-26T19:18:33.091Z,6.42
2023-08-26T19:21:40.158Z,6.58
2023-08-26T19:24:47.969Z,6.60
2023-08-26T19:27:55.098Z,6.65
2023-08-26T19:31:01.866Z,6.25
2023-08-26T19:34:06.945Z,6.17
2023-08-26T19:37:11.556Z,6.58
2023-08-26T19:40:20.197Z,5.92
2023-08-26T19:43:26.911Z,5.97
2023-08-26T19:46:32.917Z,5.50
2023-08-26T19:49:41.465Z,5.30
2023-08-26T19:52:48.296Z,5.83
2023-08-26T19:55:54.633Z,5.42
2023-08-26T19:58:59.926Z,5.75
2023-08-26T20:02:06.254Z,5.87
2023-08-26T20:05:13.215Z,6.60
2023-08-26T20:08:21.014Z,6.15
2023-08-26T20:11:26.850Z,5.83
2023-08-26T20:14:33.246Z,5.80
2023-08-26T20:17:40.958Z,5.87
2023-08-26T20:20:48.107Z,6.22
2023-08-26T20:23:53.828Z,6.42
2023-08-26T20:26:59.632Z,5.80
2023-08-26T20:30:05.133Z,7.35
2023-08-26T20:33:12.031Z,6.70
2023-08-26T20:36:18.276Z,6.65
2023-08-26T20:39:24.390Z,6.85
2023-08-26T20:42:31.819Z,8.05
2023-08-26T20:45:37.765Z,7.60
2023-08-26T20:48:44.046Z,7.40
2023-08-26T20:51:50.198Z,7.10
2023-08-26T20:54:55.117Z,7.10
2023-08-26T20:58:01.727Z,6.67
2023-08-26T21:01:11.098Z,7.15
2023-08-26T21:04:16.947Z,6.72
2023-08-26T21:07:24.264Z,7.10
2023-08-26T21:10:32.484Z,7.05
2023-08-26T21:13:37.996Z,7.50
2023-08-26T21:16:45.447Z,7.22
2023-08-26T21:19:51.539Z,7.17
2023-08-26T21:22:57.232Z,6.42
2023-08-26T21:26:07.520Z,7.65
2023-08-26T21:29:13.739Z,7.65
2023-08-26T21:32:19.002Z,8.08
2023-08-26T21:35:25.174Z,7.45
2023-08-26T21:38:30.232Z,7.37
2023-08-26T21:41:36.184Z,7.17
2023-08-26T21:44:41.827Z,7.75
2023-08-26T21:47:48.140Z,8.08
2023-08-26T21:51:01.222Z,7.78
2023-08-26T21:54:08.525Z,7.95
2023-08-26T21:57:14.872Z,7.75
2023-08-26T22:00:20.908Z,8.40
2023-08-26T22:03:26.698Z,7.95
2023-08-26T22:06:33.506Z,8.50
2023-08-26T22:09:39.437Z,8.30
2023-08-26T22:12:45.217Z,7.75
2023-08-26T22:15:50.583Z,7.97
2023-08-26T22:18:56.899Z,8.13
2023-08-26T22:22:04.138Z,7.95
2023-08-26T22:25:10.138Z,8.40
2023-08-26T22:28:15.795Z,8.55
2023-08-26T22:31:21.645Z,8.03
2023-08-26T22:34:26.931Z,8.20
2023-08-26T22:37:34.824Z,7.90
2023-08-26T22:40:39.992Z,7.87
2023-08-26T22:43:46.504Z,8.93
2023-08-26T22:46:53.807Z,8.65
2023-08-26T22:49:59.490Z,9.60
2023-08-26T22:53:05.420Z,8.83
2023-08-26T22:56:10.671Z,8.10
2023-08-26T22:59:17.462Z,8.60
2023-08-26T23:02:22.768Z,17.23
2023-08-26T23:05:29.995Z,10.58
2023-08-26T23:08:36.120Z,9.10
2023-08-26T23:11:42.402Z,8.78
2023-08-26T23:14:50.310Z,8.40
2023-08-26T23:17:56.892Z,10.08
2023-08-26T23:21:03.199Z,10.03
2023-08-26T23:24:09.816Z,9.30
2023-08-26T23:27:16.604Z,9.90
2023-08-26T23:30:24.735Z,9.23
2023-08-26T23:33:30.521Z,9.10
2023-08-26T23:36:35.754Z,9.28
2023-08-26T23:39:43.204Z,9.98
2023-08-26T23:42:49.664Z,10.00
2023-08-26T23:45:55.404Z,9.93
2023-08-26T23:49:01.072Z,9.98
2023-08-26T23:52:06.644Z,10.75
2023-08-26T23:55:13.840Z,9.93
2023-08-26T23:58:20.426Z,10.30
